Time;durP1;ratioP1;P1;durP2;ratioP2;P2;SDS_P1;SDS_P2;PMS_P1;PMS_P2;Temp;Humidity;BMP_temperature;BMP_pressure;BME280_temperature;BME280_humidity;BME280_pressure;Samples;Min_cycle;Max_cycle;Signal;HPM_P1;HPM_P2
2022/07/25 00:00:58;;;;;;;10.70;8.07;;;;;;;22.44;75.43;96087.94;5067947;28;20047;-78
2022/07/25 00:03:24;;;;;;;9.85;8.00;;;;;;;22.35;76.51;96087.50;5072949;28;20024;-79
2022/07/25 00:05:50;;;;;;;15.25;8.38;;;;;;;22.34;76.72;96082.38;5051243;28;20813;-79
2022/07/25 00:08:17;;;;;;;9.73;7.88;;;;;;;22.24;77.78;96080.31;5055105;28;20043;-78
2022/07/25 00:10:43;;;;;;;10.77;8.07;;;;;;;22.23;78.40;96083.22;5053760;28;20042;-79
2022/07/25 00:13:08;;;;;;;9.60;7.93;;;;;;;22.21;79.10;96071.94;5065272;28;20029;-79
2022/07/25 00:15:34;;;;;;;10.57;8.55;;;;;;;22.10;79.97;96070.88;5058637;28;20154;-78
2022/07/25 00:18:00;;;;;;;8.95;8.05;;;;;;;22.11;80.12;96069.81;5073123;28;20064;-77
2022/07/25 00:20:26;;;;;;;14.32;8.30;;;;;;;22.13;80.50;96067.72;5071380;28;20028;-79
2022/07/25 00:22:52;;;;;;;12.38;9.18;;;;;;;22.20;79.90;96068.44;5069659;28;20128;-78
2022/07/25 00:25:17;;;;;;;12.43;8.90;;;;;;;22.14;80.54;96064.00;5051988;28;20561;-79
2022/07/25 00:27:43;;;;;;;10.82;7.70;;;;;;;22.08;81.13;96056.91;5042517;28;20033;-79
2022/07/25 00:30:09;;;;;;;12.13;8.82;;;;;;;22.02;82.24;96060.53;5052363;28;20056;-77
2022/07/25 00:32:35;;;;;;;11.35;8.68;;;;;;;22.11;82.23;96049.22;5056020;28;20525;-78
2022/07/25 00:35:00;;;;;;;9.60;8.60;;;;;;;22.05;82.74;96055.50;5042301;28;20020;-79
2022/07/25 00:37:26;;;;;;;10.32;8.10;;;;;;;22.09;83.16;96053.16;5044149;28;20044;-79
2022/07/25 00:39:52;;;;;;;10.00;7.60;;;;;;;22.05;83.88;96054.69;5055635;28;20020;-80
2022/07/25 00:42:17;;;;;;;8.80;7.57;;;;;;;21.98;84.77;96057.50;5043259;28;20622;-78
2022/07/25 00:44:43;;;;;;;11.85;8.02;;;;;;;22.01;84.75;96057.03;5057880;28;20037;-80
2022/07/25 00:47:09;;;;;;;10.77;8.30;;;;;;;21.98;85.53;96054.81;5048197;28;20032;-80
2022/07/25 00:49:35;;;;;;;11.90;8.10;;;;;;;22.01;85.87;96048.19;5073482;28;20037;-79
2022/07/25 00:52:01;;;;;;;10.80;7.68;;;;;;;21.96;86.67;96050.75;5053337;28;20040;-80
2022/07/25 00:54:28;;;;;;;13.00;8.35;;;;;;;21.98;87.15;96046.78;5052759;28;20032;-78
2022/07/25 00:56:53;;;;;;;10.45;7.88;;;;;;;21.95;88.00;96046.44;5073201;28;20085;-79
2022/07/25 00:59:19;;;;;;;9.68;8.35;;;;;;;21.85;89.22;96049.72;5073059;28;20028;-77
2022/07/25 01:01:46;;;;;;;11.05;8.70;;;;;;;21.84;90.17;96042.75;5054974;28;20028;-79
2022/07/25 01:04:13;;;;;;;10.27;8.45;;;;;;;21.94;89.83;96042.16;5070859;28;20040;-78
2022/07/25 01:06:38;;;;;;;12.52;9.15;;;;;;;21.99;89.83;96039.56;5050982;28;20553;-78
2022/07/25 01:09:04;;;;;;;12.70;8.88;;;;;;;22.02;90.11;96037.22;5055312;28;20104;-79
2022/07/25 01:11:30;;;;;;;10.70;8.35;;;;;;;22.07;89.54;96039.22;5054649;28;20047;-79
2022/07/25 01:13:55;;;;;;;11.32;8.98;;;;;;;22.01;90.45;96032.94;5042358;28;20048;-79
2022/07/25 01:16:21;;;;;;;10.95;8.98;;;;;;;22.02;90.45;96041.78;5077033;28;20029;-79
2022/07/25 01:18:47;;;;;;;11.25;8.82;;;;;;;22.09;90.21;96031.75;5058236;28;21222;-78
2022/07/25 01:21:13;;;;;;;10.40;8.43;;;;;;;21.99;91.19;96042.25;5056225;28;20033;-79
2022/07/25 01:23:39;;;;;;;11.98;8.70;;;;;;;22.09;91.02;96043.25;5063377;28;20032;-80
2022/07/25 01:26:05;;;;;;;10.15;8.25;;;;;;;22.06;90.93;96041.06;5055569;28;20044;-77
2022/07/25 01:28:30;;;;;;;15.52;9.80;;;;;;;22.05;91.77;96039.44;5056272;28;20072;-77
2022/07/25 01:30:57;;;;;;;10.25;8.18;;;;;;;21.99;91.66;96037.69;5054244;28;20096;-79
2022/07/25 01:33:22;;;;;;;13.45;8.77;;;;;;;22.01;91.97;96032.13;5055687;28;20025;-79
2022/07/25 01:35:49;;;;;;;11.73;8.68;;;;;;;22.04;92.32;96031.66;5054452;28;20374;-79
2022/07/25 01:38:16;;;;;;;12.18;9.10;;;;;;;22.05;92.22;96033.28;5056573;28;20024;-79
2022/07/25 01:40:42;;;;;;;10.52;8.65;;;;;;;22.10;92.09;96030.72;5073537;28;20093;-79
2022/07/25 01:43:08;;;;;;;13.45;8.48;;;;;;;22.00;92.92;96030.47;5062672;28;20040;-79
2022/07/25 01:45:34;;;;;;;10.95;9.10;;;;;;;22.02;93.24;96039.09;5043086;28;20573;-78
2022/07/25 01:47:59;;;;;;;10.93;9.10;;;;;;;22.11;92.70;96033.13;5073631;28;20099;-79
2022/07/25 01:50:25;;;;;;;10.27;8.75;;;;;;;22.08;92.67;96030.94;5047789;28;20029;-77
2022/07/25 01:52:51;;;;;;;10.75;8.75;;;;;;;22.07;93.25;96042.72;5044457;28;20029;-79
2022/07/25 01:55:17;;;;;;;10.38;9.18;;;;;;;21.99;94.21;96035.03;5055556;28;20039;-79
2022/07/25 01:57:43;;;;;;;11.35;9.02;;;;;;;21.99;94.42;96042.25;5071081;28;20047;-80
2022/07/25 02:00:12;;;;;;;10.23;8.93;;;;;;;21.99;94.45;96039.56;5060152;28;20020;-78
2022/07/25 02:02:47;;;;;;;12.60;8.45;;;;;;;21.98;94.56;96044.13;5056012;28;20043;-79
2022/07/25 02:05:13;;;;;;;10.70;8.30;;;;;;;21.89;95.27;96045.50;5070928;28;20404;-79
2022/07/25 02:07:39;;;;;;;11.77;8.95;;;;;;;21.81;95.82;96038.66;5054767;28;20036;-79
2022/07/25 02:10:06;;;;;;;11.50;9.00;;;;;;;21.88;95.24;96027.84;5062570;28;20033;-78
2022/07/25 02:12:32;;;;;;;11.55;8.93;;;;;;;21.89;96.06;96032.13;5075338;28;20036;-78
2022/07/25 02:14:58;;;;;;;10.43;8.90;;;;;;;21.77;96.75;96032.16;5065329;28;20054;-80
2022/07/25 02:17:24;;;;;;;11.98;9.02;;;;;;;21.74;97.60;96019.25;5058641;28;20032;-79
2022/07/25 02:19:49;;;;;;;10.30;9.15;;;;;;;21.70;97.63;96028.00;5058973;28;20028;-79
2022/07/25 02:22:15;;;;;;;16.70;9.48;;;;;;;21.63;97.84;96018.22;5067974;28;20028;-78
2022/07/25 02:24:41;;;;;;;11.25;9.15;;;;;;;21.65;98.11;96026.00;5054204;28;20039;-80
2022/07/25 02:27:07;;;;;;;12.05;8.80;;;;;;;21.65;98.59;96021.44;5052533;28;20025;-79
2022/07/25 02:29:33;;;;;;;10.98;8.88;;;;;;;21.71;98.37;96016.22;5058064;28;20029;-78
2022/07/25 02:31:58;;;;;;;10.88;9.57;;;;;;;21.62;98.83;96018.44;5060132;28;20075;-79
2022/07/25 02:34:24;;;;;;;12.25;9.30;;;;;;;21.63;99.08;96017.41;5063079;28;20032;-77
2022/07/25 02:36:50;;;;;;;11.88;9.25;;;;;;;21.60;99.40;96009.84;5053358;28;20032;-78
2022/07/25 02:39:16;;;;;;;13.32;9.65;;;;;;;21.57;99.82;96011.13;5062484;28;20052;-77
2022/07/25 02:41:43;;;;;;;11.48;9.65;;;;;;;21.59;99.99;96006.31;5054434;28;20048;-79
2022/07/25 02:44:09;;;;;;;9.75;8.73;;;;;;;21.54;100.00;95994.72;5071015;28;20037;-78
2022/07/25 02:46:34;;;;;;;11.82;9.35;;;;;;;21.50;100.00;95993.56;5042948;28;20037;-79
2022/07/25 02:49:00;;;;;;;13.43;9.07;;;;;;;21.50;100.00;95996.25;5070713;28;20397;-78
2022/07/25 02:51:26;;;;;;;13.27;9.85;;;;;;;21.45;100.00;95983.53;5053635;28;20036;-80
2022/07/25 02:53:52;;;;;;;11.40;9.25;;;;;;;21.33;100.00;95988.88;5058252;28;20032;-79
2022/07/25 02:56:17;;;;;;;11.40;9.52;;;;;;;21.37;100.00;95984.72;5077730;28;20056;-80
2022/07/25 02:58:43;;;;;;;10.60;9.50;;;;;;;21.41;100.00;95977.84;5067126;28;20029;-80
2022/07/25 03:01:09;;;;;;;11.57;9.65;;;;;;;21.40;100.00;95975.41;5044876;28;20039;-78
2022/07/25 03:03:35;;;;;;;12.32;9.50;;;;;;;21.40;100.00;95981.59;5039486;28;20521;-80
2022/07/25 03:06:00;;;;;;;12.75;9.05;;;;;;;21.40;100.00;95970.88;5064674;28;20032;-80
2022/07/25 03:08:26;;;;;;;11.15;9.20;;;;;;;21.37;100.00;95979.38;5057541;28;20504;-80
2022/07/25 03:10:52;;;;;;;9.52;8.52;;;;;;;21.41;100.00;95977.03;5046990;28;20115;-79
2022/07/25 03:13:18;;;;;;;13.10;10.10;;;;;;;21.38;100.00;95980.19;5049501;28;20077;-79
2022/07/25 03:15:43;;;;;;;12.40;9.93;;;;;;;21.32;100.00;95978.41;5078214;28;20040;-79
2022/07/25 03:18:09;;;;;;;10.02;9.00;;;;;;;21.30;100.00;95978.66;5057714;28;20032;-80
2022/07/25 03:20:35;;;;;;;10.35;9.25;;;;;;;21.29;100.00;95973.50;5057971;28;20033;-79
2022/07/25 03:23:01;;;;;;;10.88;8.77;;;;;;;21.26;100.00;95976.66;5076937;28;20040;-79
2022/07/25 03:25:26;;;;;;;11.50;9.75;;;;;;;21.23;100.00;95969.09;5068988;28;20032;-77
2022/07/25 03:27:52;;;;;;;11.73;9.73;;;;;;;21.24;100.00;95971.56;5075503;28;20074;-78
2022/07/25 03:30:18;;;;;;;10.27;9.15;;;;;;;21.18;100.00;95970.59;5075824;28;20043;-80
2022/07/25 03:32:43;;;;;;;10.93;9.77;;;;;;;21.24;100.00;95966.19;5052582;28;20017;-80
2022/07/25 03:35:09;;;;;;;11.98;9.43;;;;;;;21.31;100.00;95958.88;5058064;28;20037;-79
2022/07/25 03:37:35;;;;;;;11.65;9.52;;;;;;;21.29;100.00;95955.59;5058642;28;20041;-80
2022/07/25 03:40:01;;;;;;;11.25;10.07;;;;;;;21.31;100.00;95948.16;5074685;28;20104;-79
2022/07/25 03:42:27;;;;;;;12.90;10.07;;;;;;;21.27;100.00;95941.66;5059858;28;20081;-76
2022/07/25 03:44:52;;;;;;;11.88;10.02;;;;;;;21.23;100.00;95950.38;5054526;28;20111;-79
2022/07/25 03:47:18;;;;;;;12.23;10.43;;;;;;;21.27;100.00;95952.38;5067541;28;20036;-76
2022/07/25 03:49:44;;;;;;;13.95;10.45;;;;;;;21.20;100.00;95946.31;5085997;28;20039;-76
2022/07/25 03:52:09;;;;;;;11.13;9.65;;;;;;;21.24;100.00;95957.38;5072261;28;20032;-76
2022/07/25 03:54:35;;;;;;;12.95;10.10;;;;;;;21.15;100.00;95949.69;5051492;28;20032;-78
2022/07/25 03:57:01;;;;;;;11.85;10.15;;;;;;;21.10;100.00;95946.09;5065564;28;20025;-78
2022/07/25 03:59:27;;;;;;;14.73;9.85;;;;;;;21.14;100.00;95941.91;5059399;28;20048;-80
2022/07/25 04:01:52;;;;;;;10.20;9.20;;;;;;;21.15;100.00;95951.53;5062312;28;20098;-79
2022/07/25 04:04:18;;;;;;;14.38;10.30;;;;;;;21.21;100.00;95947.13;5061396;28;20032;-79
2022/07/25 04:06:45;;;;;;;11.73;10.30;;;;;;;21.24;100.00;95950.16;5057888;28;20034;-80
2022/07/25 04:09:12;;;;;;;12.32;9.88;;;;;;;21.25;100.00;95942.94;5066664;28;20061;-79
2022/07/25 04:11:38;;;;;;;11.52;10.05;;;;;;;21.22;100.00;95941.53;5062124;28;20040;-80
2022/07/25 04:14:05;;;;;;;11.75;9.80;;;;;;;21.30;100.00;95943.06;5062055;28;20176;-78
2022/07/25 04:16:31;;;;;;;12.98;10.15;;;;;;;21.23;100.00;95937.00;5072296;28;20035;-79
2022/07/25 04:18:57;;;;;;;14.82;9.63;;;;;;;21.31;100.00;95937.47;5060869;28;20051;-79
2022/07/25 04:21:23;;;;;;;11.02;9.73;;;;;;;21.28;100.00;95937.94;5063020;28;20036;-79
2022/07/25 04:23:49;;;;;;;12.10;10.63;;;;;;;21.31;100.00;95925.97;5085269;28;20044;-78
2022/07/25 04:26:16;;;;;;;13.75;10.23;;;;;;;21.22;100.00;95925.50;5074125;28;20100;-79
2022/07/25 04:28:41;;;;;;;11.57;9.77;;;;;;;21.27;100.00;95922.13;5056472;28;20051;-78
2022/07/25 04:31:07;;;;;;;12.23;9.90;;;;;;;21.26;100.00;95924.00;5069011;28;20028;-79
2022/07/25 04:33:36;;;;;;;12.07;9.80;;;;;;;21.33;100.00;95919.34;5057815;28;20032;-80
2022/07/25 04:36:02;;;;;;;12.75;9.70;;;;;;;21.24;100.00;95918.06;5068177;28;20025;-79
2022/07/25 04:38:27;;;;;;;10.57;9.13;;;;;;;21.24;100.00;95918.06;5058785;28;20392;-77
2022/07/25 04:40:53;;;;;;;11.80;10.43;;;;;;;21.21;100.00;95915.84;5070387;28;20032;-78
2022/07/25 04:43:19;;;;;;;10.90;9.80;;;;;;;21.28;100.00;95910.38;5072950;28;20023;-77
2022/07/25 04:45:45;;;;;;;10.82;9.57;;;;;;;21.29;100.00;95917.34;5073223;28;20040;-79
2022/07/25 04:48:11;;;;;;;11.73;10.40;;;;;;;21.32;100.00;95907.00;5060496;28;20170;-79
2022/07/25 04:50:37;;;;;;;12.93;9.35;;;;;;;21.45;100.00;95910.50;5079715;28;20024;-79
2022/07/25 04:53:03;;;;;;;14.10;9.98;;;;;;;21.41;100.00;95908.28;5063250;28;20044;-80
2022/07/25 04:55:31;;;;;;;10.88;9.35;;;;;;;21.42;100.00;95907.25;5045045;28;20059;-78
2022/07/25 04:57:57;;;;;;;11.95;10.20;;;;;;;21.44;100.00;95885.63;5046866;28;20519;-77
2022/07/25 05:00:23;;;;;;;14.52;9.55;;;;;;;21.55;100.00;95886.63;5063394;28;20024;-78
2022/07/25 05:02:50;;;;;;;10.48;9.18;;;;;;;21.55;100.00;95889.31;5069611;28;20028;-80
2022/07/25 05:05:16;;;;;;;12.90;10.15;;;;;;;21.68;100.00;95893.59;5075768;28;20029;-79
2022/07/25 05:07:42;;;;;;;12.98;10.52;;;;;;;21.81;100.00;95904.81;5067506;28;20461;-77
2022/07/25 05:10:09;;;;;;;12.70;9.40;;;;;;;21.88;100.00;95897.47;5044872;28;20056;-77
2022/07/25 05:12:35;;;;;;;14.88;9.98;;;;;;;21.91;100.00;95900.72;5059307;28;20117;-79
2022/07/25 05:15:01;;;;;;;12.23;9.68;;;;;;;22.01;100.00;95891.03;5070344;28;20032;-79
2022/07/25 05:17:27;;;;;;;11.52;9.55;;;;;;;22.07;100.00;95895.41;5053464;28;20063;-80
2022/07/25 05:19:53;;;;;;;12.15;10.77;;;;;;;22.23;100.00;95903.75;5044055;28;20044;-79
2022/07/25 05:22:18;;;;;;;12.27;10.00;;;;;;;22.28;100.00;95893.94;5077608;28;20067;-78
2022/07/25 05:24:44;;;;;;;11.60;9.45;;;;;;;22.29;100.00;95894.75;5059665;28;20082;-80
2022/07/25 05:27:10;;;;;;;14.43;10.15;;;;;;;22.44;100.00;95892.34;5059151;28;20055;-80
2022/07/25 05:29:35;;;;;;;11.63;9.57;;;;;;;22.62;100.00;95896.66;5034459;28;20047;-80
2022/07/25 05:32:01;;;;;;;11.35;9.65;;;;;;;22.88;100.00;95892.50;5051762;28;20118;-80
2022/07/25 05:34:27;;;;;;;12.68;10.48;;;;;;;23.00;100.00;95890.59;5075939;28;20025;-80
2022/07/25 05:36:52;;;;;;;12.63;8.60;;;;;;;23.18;100.00;95892.16;5063845;28;20086;-79
2022/07/25 05:39:18;;;;;;;10.40;9.30;;;;;;;23.34;100.00;95898.56;5065558;28;20028;-81
2022/07/25 05:41:44;;;;;;;10.55;9.45;;;;;;;23.31;99.94;95896.38;5071665;28;20062;-80
2022/07/25 05:44:10;;;;;;;11.60;10.20;;;;;;;23.48;99.31;95891.78;5058891;28;20036;-80
2022/07/25 05:46:35;;;;;;;12.07;10.65;;;;;;;23.67;98.81;95894.94;5061087;28;20036;-79
2022/07/25 05:49:01;;;;;;;11.52;9.55;;;;;;;23.85;97.57;95887.69;5075471;28;20094;-80
2022/07/25 05:51:27;;;;;;;11.10;9.38;;;;;;;23.99;96.43;95887.03;5044159;28;20028;-80
2022/07/25 05:53:53;;;;;;;13.73;10.00;;;;;;;24.22;93.59;95885.09;5074026;28;20032;-78
2022/07/25 05:56:19;;;;;;;12.63;10.55;;;;;;;24.38;93.94;95883.34;5053895;28;20035;-81
2022/07/25 05:58:44;;;;;;;14.70;10.23;;;;;;;24.63;90.94;95880.94;5040528;28;20064;-81
2022/07/25 06:01:12;;;;;;;13.20;9.93;;;;;;;24.42;91.89;95885.31;5061774;28;20034;-80
2022/07/25 06:03:38;;;;;;;10.55;9.35;;;;;;;24.58;91.31;95883.59;5066443;28;20040;-80
2022/07/25 06:06:05;;;;;;;10.90;9.57;;;;;;;24.52;89.98;95884.59;5067355;28;20267;-79
2022/07/25 06:08:30;;;;;;;10.45;9.35;;;;;;;24.69;89.64;95879.91;5062041;28;20505;-77
2022/07/25 06:10:57;;;;;;;12.52;9.98;;;;;;;25.23;85.80;95884.34;5049984;28;20052;-80
2022/07/25 06:13:24;;;;;;;12.05;9.68;;;;;;;25.35;85.44;95878.72;5077224;28;20052;-80
2022/07/25 06:15:50;;;;;;;10.65;9.55;;;;;;;25.67;81.97;95881.31;5062975;28;20020;-80
2022/07/25 06:18:16;;;;;;;10.65;9.00;;;;;;;25.55;83.18;95881.53;5055558;28;20037;-80
2022/07/25 06:20:41;;;;;;;13.63;9.65;;;;;;;25.74;80.77;95876.50;5078578;28;20043;-80
2022/07/25 06:23:07;;;;;;;11.65;9.65;;;;;;;25.80;81.82;95875.47;5072902;28;20020;-79
2022/07/25 06:25:33;;;;;;;11.68;9.10;;;;;;;26.43;77.85;95869.13;5066939;22;20124;-80
2022/07/25 06:27:59;;;;;;;9.65;8.63;;;;;;;26.76;72.83;95874.03;5039909;28;20602;-80
2022/07/25 06:30:25;;;;;;;10.93;9.45;;;;;;;26.71;72.54;95871.31;5050057;28;20080;-77
2022/07/25 06:32:51;;;;;;;11.23;10.02;;;;;;;26.99;73.02;95872.63;5063036;28;20506;-79
2022/07/25 06:35:17;;;;;;;10.75;8.82;;;;;;;26.89;72.28;95869.94;5057066;28;20031;-80
2022/07/25 06:37:43;;;;;;;11.63;9.05;;;;;;;27.12;71.41;95865.88;5051888;28;20035;-80
2022/07/25 06:40:09;;;;;;;11.63;8.80;;;;;;;27.08;72.17;95869.41;5051137;28;20486;-80
2022/07/25 06:42:40;;;;;;;11.77;9.73;;;;;;;27.50;68.17;95867.16;5078415;28;20033;-79
2022/07/25 06:45:08;;;;;;;11.93;9.55;;;;;;;27.41;68.96;95865.28;5036987;28;20041;-79
2022/07/25 06:47:34;;;;;;;12.32;9.50;;;;;;;27.67;67.32;95866.81;5033193;28;20066;-78
2022/07/25 06:50:00;;;;;;;12.18;9.93;;;;;;;27.69;66.75;95866.53;5050031;28;20021;-79
2022/07/25 06:52:26;;;;;;;11.82;9.18;;;;;;;27.88;65.36;95864.06;5045458;28;20029;-79
2022/07/25 06:54:52;;;;;;;12.00;9.68;;;;;;;27.17;69.08;95868.59;5051873;28;20473;-78
2022/07/25 06:57:57;;;;;;;;;;;;;;;;;;;;;
2022/07/25 07:01:39;;;;;;;14.50;10.07;;;;;;;28.05;64.32;95856.38;5048728;28;20086;-80
2022/07/25 07:04:29;;;;;;;11.02;9.90;;;;;;;28.34;62.24;95853.78;5028595;28;20037;-79
2022/07/25 07:07:01;;;;;;;12.18;9.38;;;;;;;29.30;58.03;95848.63;5043410;28;20029;-80
2022/07/25 07:09:39;;;;;;;;;;;;;;;;;;;;;
2022/07/25 07:12:13;;;;;;;11.25;9.13;;;;;;;29.74;56.97;95846.78;5039447;28;20025;-79
2022/07/25 07:14:38;;;;;;;10.68;9.68;;;;;;;29.87;54.37;95837.13;5043061;28;20033;-80
2022/07/25 07:17:04;;;;;;;10.90;9.65;;;;;;;30.66;52.21;95840.06;5041673;28;20462;-79
2022/07/25 07:19:30;;;;;;;10.40;9.40;;;;;;;30.73;50.50;95835.84;5066853;28;20087;-77
2022/07/25 07:21:56;;;;;;;10.07;8.95;;;;;;;29.55;54.74;95835.88;5052881;28;20496;-79
2022/07/25 07:24:22;;;;;;;10.90;9.80;;;;;;;29.81;54.57;95836.38;5050767;28;20066;-78
2022/07/25 07:26:47;;;;;;;10.65;8.73;;;;;;;30.22;52.82;95835.84;5060557;28;20037;-77
2022/07/25 07:29:13;;;;;;;11.75;10.07;;;;;;;30.23;51.94;95840.97;5061632;28;20544;-80
2022/07/25 07:31:39;;;;;;;10.02;9.02;;;;;;;31.22;49.84;95831.75;5050624;28;20049;-79
2022/07/25 07:34:05;;;;;;;10.43;9.35;;;;;;;31.32;49.94;95832.63;5048950;28;20033;-79
2022/07/25 07:36:31;;;;;;;12.85;8.80;;;;;;;31.22;47.11;95837.19;5041182;28;20036;-78
2022/07/25 07:38:57;;;;;;;10.20;8.82;;;;;;;31.73;46.46;95829.94;5050022;28;20035;-80
2022/07/25 07:41:23;;;;;;;12.48;9.38;;;;;;;31.77;44.97;95832.84;5059646;28;20036;-80
2022/07/25 07:43:49;;;;;;;10.05;8.80;;;;;;;31.33;45.85;95826.13;5032786;28;20471;-79
2022/07/25 07:46:14;;;;;;;10.80;8.95;;;;;;;31.97;45.38;95824.28;5043293;28;20036;-77
2022/07/25 07:48:40;;;;;;;12.25;9.23;;;;;;;32.29;44.36;95830.63;5044706;28;20453;-80
2022/07/25 07:51:06;;;;;;;10.73;8.98;;;;;;;32.40;43.89;95830.09;5028277;28;20056;-81
2022/07/25 07:56:17;;;;;;;9.90;8.25;;;;;;;32.81;41.20;95831.03;5057448;28;20025;-79
2022/07/25 07:58:44;;;;;;;9.82;8.73;;;;;;;32.54;41.53;95821.91;5033689;28;20036;-79
2022/07/25 08:01:10;;;;;;;10.13;9.13;;;;;;;32.46;41.75;95824.53;5065454;28;20028;-80
2022/07/25 08:03:36;;;;;;;13.27;9.30;;;;;;;33.14;41.81;95817.94;5042846;28;20048;-80
2022/07/25 08:06:03;;;;;;;9.65;8.65;;;;;;;33.33;39.87;95815.78;5043803;28;20029;-79
2022/07/25 08:08:29;;;;;;;12.00;8.68;;;;;;;33.81;39.59;95813.38;5046183;28;20116;-80
2022/07/25 08:10:55;;;;;;;9.35;8.35;;;;;;;34.11;38.63;95800.75;5060240;28;20044;-78
2022/07/25 08:13:23;;;;;;;9.98;8.98;;;;;;;34.44;37.47;95804.59;5048418;28;21324;-80
2022/07/25 08:15:51;;;;;;;14.00;8.70;;;;;;;34.63;37.07;95812.47;5066508;28;20025;-78
2022/07/25 08:18:17;;;;;;;9.73;8.75;;;;;;;34.03;37.70;95810.53;5040231;28;20037;-79
2022/07/25 08:20:46;;;;;;;10.32;8.10;;;;;;;33.90;38.12;95805.97;5066474;28;20108;-80
2022/07/25 08:23:13;;;;;;;9.48;8.13;;;;;;;34.73;36.30;95806.66;5041068;28;20020;-79
2022/07/25 08:25:40;;;;;;;9.65;8.40;;;;;;;34.76;35.79;95799.75;5055790;28;20971;-77
2022/07/25 08:28:06;;;;;;;11.07;8.75;;;;;;;34.98;34.73;95796.00;5065936;28;20064;-79
2022/07/25 08:30:33;;;;;;;8.23;7.22;;;;;;;34.70;34.44;95801.03;5047538;28;20047;-79
2022/07/25 08:33:04;;;;;;;9.25;8.35;;;;;;;35.42;35.03;95800.19;5054507;28;20345;-80
2022/07/25 08:35:31;;;;;;;9.00;7.75;;;;;;;34.92;34.79;95803.56;5046236;28;20110;-79
2022/07/25 08:37:58;;;;;;;8.57;7.78;;;;;;;35.36;33.70;95806.97;5053723;28;20040;-77
2022/07/25 08:40:26;;;;;;;9.45;8.45;;;;;;;36.10;32.45;95804.81;5044879;28;20021;-79
2022/07/25 08:42:57;;;;;;;9.63;8.38;;;;;;;35.55;33.60;95797.59;5044786;28;21185;-79
2022/07/25 08:45:23;;;;;;;10.10;7.85;;;;;;;36.09;33.26;95800.47;5052628;28;20040;-78
2022/07/25 08:47:53;;;;;;;8.88;7.93;;;;;;;36.74;33.38;95804.41;5044136;28;20033;-79
2022/07/25 08:50:22;;;;;;;9.50;8.50;;;;;;;36.66;33.10;95805.31;5048404;28;20059;-79
2022/07/25 08:52:49;;;;;;;8.52;7.63;;;;;;;36.52;33.15;95802.06;5034997;28;20028;-78
2022/07/25 08:55:18;;;;;;;9.02;8.13;;;;;;;36.74;31.86;95806.34;5068211;28;20552;-78
2022/07/25 08:57:46;;;;;;;10.15;8.70;;;;;;;35.82;32.74;95799.81;5043255;28;20496;-79
2022/07/25 09:00:15;;;;;;;9.95;8.20;;;;;;;36.33;33.57;95806.06;5049933;28;20536;-78
2022/07/25 09:02:41;;;;;;;9.27;8.35;;;;;;;36.67;31.50;95798.69;5040325;28;20098;-81
2022/07/25 09:05:08;;;;;;;11.90;8.25;;;;;;;36.54;31.32;95794.31;5062734;28;20033;-79
2022/07/25 09:07:40;;;;;;;9.43;8.15;;;;;;;37.58;31.72;95803.31;5049660;28;20104;-79
2022/07/25 09:10:16;;;;;;;9.10;8.23;;;;;;;36.67;31.37;95795.16;5059201;28;20086;-78
2022/07/25 09:12:56;;;;;;;8.70;7.80;;;;;;;36.72;31.81;95794.94;5043376;28;20039;-78
2022/07/25 09:15:32;;;;;;;10.55;9.23;;;;;;;36.27;33.12;95801.91;5069488;28;20100;-78
2022/07/25 09:17:59;;;;;;;8.57;7.72;;;;;;;36.34;32.61;95801.38;5049434;28;20033;-78
2022/07/25 09:20:44;;;;;;;9.40;8.50;;;;;;;36.31;32.23;95797.38;5053222;28;20088;-77
2022/07/25 09:23:11;;;;;;;8.85;7.95;;;;;;;36.30;32.68;95801.25;5027231;28;20929;-77
2022/07/25 09:25:38;;;;;;;9.50;8.10;;;;;;;36.91;31.81;95795.22;5061588;28;20147;-78
2022/07/25 09:28:10;;;;;;;9.55;8.02;;;;;;;37.23;32.15;95788.09;5063779;28;20029;-79
2022/07/25 09:30:35;;;;;;;8.98;8.05;;;;;;;37.24;31.16;95789.69;5066520;28;20029;-77
2022/07/25 09:33:02;;;;;;;8.80;7.97;;;;;;;37.09;30.82;95792.28;5062509;28;20033;-78
2022/07/25 09:35:34;;;;;;;8.82;7.93;;;;;;;36.79;31.10;95782.28;5076476;28;20032;-77
2022/07/25 09:38:13;;;;;;;;;;;;;;;37.28;30.79;95789.81;5054448;28;20033;-77
2022/07/25 09:40:39;;;;;;;10.77;8.38;;;;;;;37.38;30.52;95791.28;5050060;28;19916;-79
2022/07/25 09:43:06;;;;;;;9.90;8.93;;;;;;;36.84;31.07;95788.69;5045215;28;20086;-79
2022/07/25 09:45:32;;;;;;;10.52;8.25;;;;;;;37.38;30.67;95792.09;5042371;28;20036;-79
2022/07/25 09:48:03;;;;;;;8.80;7.90;;;;;;;37.50;31.85;95788.59;5051494;28;20043;-79
2022/07/25 09:50:32;;;;;;;9.15;8.25;;;;;;;37.71;30.31;95793.94;5031664;28;20108;-79
2022/07/25 09:53:00;;;;;;;9.02;8.13;;;;;;;37.58;29.33;95786.88;5036154;28;20079;-79
2022/07/25 09:55:27;;;;;;;13.13;7.70;;;;;;;37.40;28.98;95792.56;5055623;28;20120;-78
2022/07/25 09:57:53;;;;;;;10.00;7.10;;;;;;;37.51;29.13;95795.66;5059452;28;20084;-80
2022/07/25 10:00:22;;;;;;;7.38;6.53;;;;;;;37.39;29.03;95784.66;5050016;28;20025;-79
2022/07/25 10:02:54;;;;;;;8.30;7.50;;;;;;;38.11;29.75;95777.53;5040556;28;20071;-80
2022/07/25 10:05:35;;;;;;;8.98;8.18;;;;;;;37.74;28.94;95777.59;5057695;28;20053;-81
2022/07/25 10:08:06;;;;;;;9.05;7.25;;;;;;;37.72;27.77;95777.13;5047063;28;20033;-80
2022/07/25 10:10:39;;;;;;;7.70;6.90;;;;;;;37.13;28.55;95783.06;5061499;28;20037;-79
2022/07/25 10:13:15;;;;;;;8.75;7.85;;;;;;;37.65;28.00;95776.09;5050964;28;20736;-79
2022/07/25 10:15:52;;;;;;;10.95;9.77;;;;;;;37.80;28.08;95783.66;5025637;28;20063;-82
2022/07/25 10:18:20;;;;;;;9.10;7.68;;;;;;;37.57;28.10;95775.09;5040324;28;20036;-78
2022/07/25 10:20:48;;;;;;;8.82;7.93;;;;;;;38.53;27.61;95770.88;5059074;28;20040;-79
2022/07/25 10:23:25;;;;;;;7.63;6.82;;;;;;;37.82;27.60;95775.84;5021204;28;20025;-78
2022/07/25 10:26:18;;;;;;;7.25;5.63;;;;;;;38.20;25.61;95780.94;5036525;28;20036;-79
2022/07/25 10:28:50;;;;;;;7.10;6.15;;;;;;;37.87;26.40;95772.88;5059116;28;20071;-78
2022/07/25 10:31:21;;;;;;;6.95;6.25;;;;;;;38.17;25.89;95765.16;5039028;28;20120;-80
2022/07/25 10:33:49;;;;;;;;;;;;;;;38.69;25.13;95768.97;5027847;28;20041;-80
2022/07/25 10:36:15;;;;;;;7.18;5.47;;;;;;;38.20;24.70;95763.69;5036711;28;20310;-80
2022/07/25 10:38:44;;;;;;;7.95;5.97;;;;;;;39.25;23.32;95773.56;5060176;28;20020;-78
2022/07/25 10:41:12;;;;;;;6.93;5.88;;;;;;;38.15;25.02;95763.91;5045250;28;20032;-77
2022/07/25 10:43:39;;;;;;;7.30;6.38;;;;;;;38.51;24.25;95759.44;5061710;28;20039;-77
2022/07/25 10:46:22;;;;;;;7.38;6.32;;;;;;;38.06;24.99;95758.53;5026776;28;20067;-78
2022/07/25 10:49:03;;;;;;;7.45;5.65;;;;;;;38.98;22.99;95754.03;5047823;28;20483;-79
2022/07/25 10:51:35;;;;;;;5.13;4.63;;;;;;;38.30;22.69;95754.94;5041842;28;20066;-78
2022/07/25 10:54:17;;;;;;;7.43;5.60;;;;;;;38.71;23.00;95752.94;5058126;28;20059;-79
2022/07/25 10:56:55;;;;;;;6.80;5.32;;;;;;;38.91;22.51;95751.13;5029253;28;20549;-79
2022/07/25 10:59:34;;;;;;;6.57;5.43;;;;;;;39.89;22.96;95744.81;5060501;28;20033;-79
2022/07/25 11:02:05;;;;;;;6.80;5.75;;;;;;;39.26;22.32;95747.66;5039062;28;20081;-78
2022/07/25 11:04:32;;;;;;;6.40;5.70;;;;;;;38.56;22.43;95759.19;5059333;28;20059;-78
2022/07/25 11:07:50;;;;;;;;;;;;;;;;;;;;;
2022/07/25 11:11:25;;;;;;;6.07;5.43;;;;;;;39.65;21.46;95734.03;5020301;28;20037;-78
2022/07/25 11:13:50;;;;;;;5.90;5.13;;;;;;;39.49;22.10;95734.06;5069577;28;20493;-78
2022/07/25 11:16:28;;;;;;;6.38;5.30;;;;;;;39.14;22.58;95730.09;5064180;28;20063;-78
2022/07/25 11:23:03;;;;;;;6.88;5.65;;;;;;;38.43;22.95;95729.03;5080122;28;20054;-77
2022/07/25 11:25:42;;;;;;;6.35;5.40;;;;;;;38.67;23.21;95732.81;5070096;28;20049;-78
2022/07/25 11:28:51;;;;;;;;;;;;;;;;;;;;;
2022/07/25 11:31:29;;;;;;;7.45;5.88;;;;;;;39.27;22.60;95730.84;5098024;28;20100;-79
2022/07/25 11:34:05;;;;;;;6.68;5.25;;;;;;;39.22;22.42;95733.00;5065591;28;20032;-79
2022/07/25 11:36:50;;;;;;;;;;;;;;;;;;;;;
2022/07/25 11:39:59;;;;;;;6.05;5.45;;;;;;;39.15;22.79;95733.63;5003682;28;20113;-79
2022/07/25 11:42:44;;;;;;;6.65;5.95;;;;;;;38.74;22.78;95729.44;5074208;28;20392;-79
2022/07/25 11:45:19;;;;;;;6.18;5.50;;;;;;;38.43;23.31;95718.06;5101299;28;20699;-79